American Integrity — WDD2875 — position and weather

sailwx.info

Track history (hours):
 
Tides and Currents Weather Stations Pressure Air Temp Water Temp Dewpoint Dewpoint Depression Visibility Wind Speed Wind Dir Waves Ship Positions

American Integrity

Owner: American Steamship Company, Williamsville, NY. More information available from US FCC via Universal Licensing System and Coast Guard Vessel Documentation Center.

Last reported at 2018-Apr-26 22:30 UTC. Time now 2018-Apr-26 22:49 UTC.
Position N 46°45' W 092°07'.

; draft 8 m.

Type: Cargo ship. MMSI: 367120990.

Date/timePositionNaut miles runAvg speedWind from/ knotsBaromVisibWave heightAir tempDewpointWater temp
2018-Apr-26 22:30N 46°45' W 092°07'0 0.0
2018-Apr-26 22:00N 46°45' W 092°07'0 0.0
2018-Apr-26 21:30N 46°45' W 092°07'0 0.0
2018-Apr-26 21:00N 46°45' W 092°07'0 0.0
2018-Apr-26 20:30N 46°45' W 092°07'0 0.0
2018-Apr-26 19:59N 46°45' W 092°07'0 0.0
2018-Apr-26 19:30N 46°45' W 092°07'0 0.0
2018-Apr-26 19:00N 46°45' W 092°07'0 0.0
2018-Apr-26 18:30N 46°45' W 092°07'0 0.0
2018-Apr-26 18:00N 46°45' W 092°07'0 0.0
2018-Apr-26 17:30N 46°45' W 092°07'0 0.0
2018-Apr-26 17:00N 46°45' W 092°07'0 0.0
2018-Apr-26 16:30N 46°45' W 092°07'0 0.0
2018-Apr-26 16:00N 46°45' W 092°07'0 0.0
2018-Apr-26 15:30N 46°45' W 092°07'0 0.0
2018-Apr-26 15:00N 46°45' W 092°07'0 0.0
2018-Apr-26 14:30N 46°45' W 092°07'1 2.9
2018-Apr-26 14:00N 46°46' W 092°06'4 7.3
2018-Apr-26 13:29N 46°48' W 092°01'348 7.3
2018-Apr-24 14:02N 45°50' W 083°44'113.7
2018-Apr-24 14:00N 45°49' W 083°44'713.7
2018-Apr-24 13:30N 45°45' W 083°36'713.6
2018-Apr-24 13:00N 45°42' W 083°28'713.6
2018-Apr-24 12:30N 45°39' W 083°19'713.5
2018-Apr-24 12:00N 45°37' W 083°10'713.4
2018-Apr-24 11:30N 45°34' W 083°01'21 0.5
2018-Apr-22 13:10N 45°39' W 083°30'212.5
2018-Apr-22 13:00N 45°41' W 083°32'611.9
2018-Apr-22 12:31N 45°45' W 083°38'333 7.4
2018-Apr-20 15:43N 47°01' W 091°28'312.4
2018-Apr-20 15:30N 46°59' W 091°32'612.7
2018-Apr-20 15:00N 46°56' W 091°40'612.6
2018-Apr-20 14:30N 46°53' W 091°48'612.6
2018-Apr-20 14:01N 46°50' W 091°56'612.0
2018-Apr-20 13:31N 46°47' W 092°04'2 4.6
2018-Apr-20 13:00N 46°46' W 092°06'1 2.7
2018-Apr-20 12:31N 46°45' W 092°07'0 0.0
2018-Apr-20 12:01N 46°45' W 092°07'0 0.0
2018-Apr-20 11:30N 46°45' W 092°07'0 0.0
2018-Apr-20 11:01N 46°45' W 092°07'0 0.0
2018-Apr-20 10:30N 46°45' W 092°07'0 0.0
2018-Apr-20 10:01N 46°45' W 092°07'0 0.0
2018-Apr-20 09:31N 46°45' W 092°07'0 0.0
2018-Apr-20 09:00N 46°45' W 092°07'0 0.0
2018-Apr-20 08:30N 46°45' W 092°07'0 0.0
2018-Apr-20 08:01N 46°45' W 092°07'0 0.0
2018-Apr-20 07:31N 46°45' W 092°07'0 0.0
2018-Apr-20 07:00N 46°45' W 092°07'0 0.0
2018-Apr-20 06:30N 46°45' W 092°07'0 0.0
2018-Apr-20 06:00N 46°45' W 092°07'0 0.0
2018-Apr-20 05:31N 46°45' W 092°07'0 0.0
2018-Apr-20 05:01N 46°45' W 092°07'0 0.0
2018-Apr-20 04:30N 46°45' W 092°07'0 0.0
2018-Apr-20 04:00N 46°45' W 092°07'0 0.0
2018-Apr-20 03:31N 46°45' W 092°07'0 0.0
2018-Apr-20 03:00N 46°45' W 092°07'0 0.0
2018-Apr-20 02:30N 46°45' W 092°07'1 1.9
2018-Apr-20 02:01N 46°45' W 092°06'2 3.5
2018-Apr-20 01:30N 46°47' W 092°05'510.3
2018-Apr-20 01:00N 46°49' W 091°59'712.9
2018-Apr-20 00:30N 46°52' W 091°50'612.8
2018-Apr-20 00:00N 46°54' W 091°41'712.9
2018-Apr-19 23:29N 46°57' W 091°33'332 6.9
2018-Apr-17 23:00N 45°45' W 083°42'612.7
2018-Apr-17 22:30N 45°39' W 083°37'612.4
2018-Apr-17 22:00N 45°34' W 083°32'612.2
2018-Apr-17 21:30N 45°29' W 083°28'612.1
2018-Apr-17 20:59N 45°24' W 083°23'  
Track history (hours):
 
Tides and Currents Weather Stations Pressure Air Temp Water Temp Dewpoint Dewpoint Depression Visibility Wind Speed Wind Dir Waves Ship Positions

American Integrity

Owner: American Steamship Company, Williamsville, NY. More information available from US FCC via Universal Licensing System and Coast Guard Vessel Documentation Center.

Last reported at 2018-Apr-26 22:30 UTC. Time now 2018-Apr-26 22:49 UTC.
Position N 46°45' W 092°07'.

; draft 8 m.

Type: Cargo ship. MMSI: 367120990.

Date/timePositionNaut miles runAvg speedWind from/ knotsBaromVisibWave heightAir tempDewpointWater temp
2018-Apr-26 22:30N 46°45' W 092°07'0 0.0
2018-Apr-26 22:00N 46°45' W 092°07'0 0.0
2018-Apr-26 21:30N 46°45' W 092°07'0 0.0
2018-Apr-26 21:00N 46°45' W 092°07'0 0.0
2018-Apr-26 20:30N 46°45' W 092°07'0 0.0
2018-Apr-26 19:59N 46°45' W 092°07'0 0.0
2018-Apr-26 19:30N 46°45' W 092°07'0 0.0
2018-Apr-26 19:00N 46°45' W 092°07'0 0.0
2018-Apr-26 18:30N 46°45' W 092°07'0 0.0
2018-Apr-26 18:00N 46°45' W 092°07'0 0.0
2018-Apr-26 17:30N 46°45' W 092°07'0 0.0
2018-Apr-26 17:00N 46°45' W 092°07'0 0.0
2018-Apr-26 16:30N 46°45' W 092°07'0 0.0
2018-Apr-26 16:00N 46°45' W 092°07'0 0.0
2018-Apr-26 15:30N 46°45' W 092°07'0 0.0
2018-Apr-26 15:00N 46°45' W 092°07'0 0.0
2018-Apr-26 14:30N 46°45' W 092°07'1 2.9
2018-Apr-26 14:00N 46°46' W 092°06'4 7.3
2018-Apr-26 13:29N 46°48' W 092°01'348 7.3
2018-Apr-24 14:02N 45°50' W 083°44'113.7
2018-Apr-24 14:00N 45°49' W 083°44'713.7
2018-Apr-24 13:30N 45°45' W 083°36'713.6
2018-Apr-24 13:00N 45°42' W 083°28'713.6
2018-Apr-24 12:30N 45°39' W 083°19'713.5
2018-Apr-24 12:00N 45°37' W 083°10'713.4
2018-Apr-24 11:30N 45°34' W 083°01'21 0.5
2018-Apr-22 13:10N 45°39' W 083°30'212.5
2018-Apr-22 13:00N 45°41' W 083°32'611.9
2018-Apr-22 12:31N 45°45' W 083°38'333 7.4
2018-Apr-20 15:43N 47°01' W 091°28'312.4
2018-Apr-20 15:30N 46°59' W 091°32'612.7
2018-Apr-20 15:00N 46°56' W 091°40'612.6
2018-Apr-20 14:30N 46°53' W 091°48'612.6
2018-Apr-20 14:01N 46°50' W 091°56'612.0
2018-Apr-20 13:31N 46°47' W 092°04'2 4.6
2018-Apr-20 13:00N 46°46' W 092°06'1 2.7
2018-Apr-20 12:31N 46°45' W 092°07'0 0.0
2018-Apr-20 12:01N 46°45' W 092°07'0 0.0
2018-Apr-20 11:30N 46°45' W 092°07'0 0.0
2018-Apr-20 11:01N 46°45' W 092°07'0 0.0
2018-Apr-20 10:30N 46°45' W 092°07'0 0.0
2018-Apr-20 10:01N 46°45' W 092°07'0 0.0
2018-Apr-20 09:31N 46°45' W 092°07'0 0.0
2018-Apr-20 09:00N 46°45' W 092°07'0 0.0
2018-Apr-20 08:30N 46°45' W 092°07'0 0.0
2018-Apr-20 08:01N 46°45' W 092°07'0 0.0
2018-Apr-20 07:31N 46°45' W 092°07'0 0.0
2018-Apr-20 07:00N 46°45' W 092°07'0 0.0
2018-Apr-20 06:30N 46°45' W 092°07'0 0.0
2018-Apr-20 06:00N 46°45' W 092°07'0 0.0
2018-Apr-20 05:31N 46°45' W 092°07'0 0.0
2018-Apr-20 05:01N 46°45' W 092°07'0 0.0
2018-Apr-20 04:30N 46°45' W 092°07'0 0.0
2018-Apr-20 04:00N 46°45' W 092°07'0 0.0
2018-Apr-20 03:31N 46°45' W 092°07'0 0.0
2018-Apr-20 03:00N 46°45' W 092°07'0 0.0
2018-Apr-20 02:30N 46°45' W 092°07'1 1.9
2018-Apr-20 02:01N 46°45' W 092°06'2 3.5
2018-Apr-20 01:30N 46°47' W 092°05'510.3
2018-Apr-20 01:00N 46°49' W 091°59'712.9
2018-Apr-20 00:30N 46°52' W 091°50'612.8
2018-Apr-20 00:00N 46°54' W 091°41'712.9
2018-Apr-19 23:29N 46°57' W 091°33'332 6.9
2018-Apr-17 23:00N 45°45' W 083°42'612.7
2018-Apr-17 22:30N 45°39' W 083°37'612.4
2018-Apr-17 22:00N 45°34' W 083°32'612.2
2018-Apr-17 21:30N 45°29' W 083°28'612.1
2018-Apr-17 20:59N 45°24' W 083°23'  

Dump ship's entire track history